createdAt,value
2018-06-11T00:02:02.354Z,17.00
2018-06-11T00:04:30.259Z,17.00
2018-06-11T00:06:57.984Z,17.10
2018-06-11T00:09:25.694Z,17.30
2018-06-11T00:11:53.437Z,17.30
2018-06-11T00:14:21.133Z,17.30
2018-06-11T00:16:48.885Z,17.30
2018-06-11T00:19:16.604Z,17.20
2018-06-11T00:21:44.410Z,17.20
2018-06-11T00:24:12.144Z,17.10
2018-06-11T00:26:39.915Z,17.00
2018-06-11T00:29:07.589Z,16.90
2018-06-11T00:31:35.378Z,16.80
2018-06-11T00:34:03.096Z,16.90
2018-06-11T00:36:30.901Z,16.80
2018-06-11T00:38:58.648Z,16.60
2018-06-11T00:41:26.442Z,16.60
2018-06-11T00:43:54.114Z,16.60
2018-06-11T00:46:21.890Z,16.70
2018-06-11T00:48:50.066Z,16.70
2018-06-11T00:51:17.772Z,16.70
2018-06-11T00:53:45.542Z,16.60
2018-06-11T00:56:13.307Z,16.70
2018-06-11T00:58:41.429Z,16.70
2018-06-11T01:01:10.977Z,16.60
2018-06-11T01:03:38.783Z,16.60
2018-06-11T01:06:06.535Z,16.60
2018-06-11T01:08:34.370Z,16.60
2018-06-11T01:11:06.431Z,16.60
2018-06-11T01:13:34.253Z,16.70
2018-06-11T01:16:02.085Z,16.60
2018-06-11T01:18:29.893Z,16.50
2018-06-11T01:20:57.574Z,16.60
2018-06-11T01:23:25.348Z,16.30
2018-06-11T01:25:53.043Z,16.50
2018-06-11T01:28:20.902Z,16.40
2018-06-11T01:30:48.606Z,16.40
2018-06-11T01:33:16.403Z,16.30
2018-06-11T01:35:44.192Z,16.20
2018-06-11T01:38:11.873Z,16.10
2018-06-11T01:40:39.625Z,16.10
2018-06-11T01:43:07.313Z,16.00
2018-06-11T01:45:35.117Z,16.00
2018-06-11T01:48:02.828Z,16.00
2018-06-11T01:50:30.635Z,16.00
2018-06-11T01:52:58.381Z,16.10
2018-06-11T01:55:26.132Z,16.20
2018-06-11T01:57:53.806Z,16.30
2018-06-11T02:00:21.539Z,16.30
2018-06-11T02:02:49.261Z,16.20
2018-06-11T02:05:17.069Z,16.10
2018-06-11T02:07:44.722Z,15.90
2018-06-11T02:10:12.445Z,15.90
2018-06-11T02:12:40.194Z,15.90
2018-06-11T02:15:07.917Z,16.00
2018-06-11T02:17:35.681Z,16.10
2018-06-11T02:20:03.395Z,16.10
2018-06-11T02:22:31.142Z,16.10
2018-06-11T02:24:58.869Z,16.10
2018-06-11T02:27:26.816Z,16.10
2018-06-11T02:29:54.506Z,16.00
2018-06-11T02:32:22.229Z,16.00
2018-06-11T02:34:50.057Z,15.90
2018-06-11T02:37:17.837Z,15.80
2018-06-11T02:42:13.133Z,15.70
2018-06-11T02:44:40.901Z,15.70
2018-06-11T02:47:08.684Z,15.70
2018-06-11T02:49:36.414Z,15.70
2018-06-11T02:52:04.146Z,15.70
2018-06-11T02:54:31.877Z,15.70
2018-06-11T02:56:59.541Z,15.60
2018-06-11T02:59:27.317Z,15.60
2018-06-11T03:01:55.122Z,15.60
2018-06-11T03:04:22.920Z,15.60
2018-06-11T03:06:50.578Z,15.50
2018-06-11T03:09:18.319Z,15.40
2018-06-11T03:11:45.989Z,15.50
2018-06-11T03:14:13.805Z,15.50
2018-06-11T03:16:41.593Z,15.40
2018-06-11T03:19:09.518Z,15.40
2018-06-11T03:21:37.210Z,15.50
2018-06-11T03:24:05.089Z,15.40
2018-06-11T03:26:32.893Z,15.50
2018-06-11T03:29:00.598Z,15.50
2018-06-11T03:31:28.421Z,15.50
2018-06-11T03:33:56.141Z,15.50
2018-06-11T03:36:23.886Z,15.60
2018-06-11T03:38:52.100Z,15.60
2018-06-11T03:41:19.870Z,15.60
2018-06-11T03:43:47.569Z,15.60
2018-06-11T03:46:15.377Z,15.50
2018-06-11T03:48:43.515Z,15.60
2018-06-11T03:51:11.254Z,15.60
2018-06-11T03:53:38.968Z,15.70
2018-06-11T03:56:06.718Z,15.70
2018-06-11T03:58:34.453Z,15.60
2018-06-11T04:01:02.142Z,15.70
2018-06-11T04:03:29.969Z,15.80
2018-06-11T04:05:57.718Z,16.00
2018-06-11T04:08:25.424Z,16.10
2018-06-11T04:10:53.185Z,16.20
2018-06-11T04:13:20.896Z,16.20
2018-06-11T04:15:48.634Z,16.30
2018-06-11T04:18:16.421Z,16.50
2018-06-11T04:20:44.145Z,16.60
2018-06-11T04:23:11.857Z,16.70
2018-06-11T04:25:39.572Z,16.80
2018-06-11T04:28:07.257Z,16.90
2018-06-11T04:30:35.065Z,16.90
2018-06-11T04:33:02.784Z,17.00
2018-06-11T04:35:30.612Z,17.10
2018-06-11T04:37:58.357Z,17.20
2018-06-11T04:45:21.405Z,17.50
2018-06-11T04:47:49.070Z,17.70
2018-06-11T04:50:16.801Z,17.80
2018-06-11T04:52:44.497Z,18.00
2018-06-11T04:55:12.270Z,18.20
2018-06-11T04:57:42.953Z,18.30
2018-06-11T05:00:10.710Z,18.50
2018-06-11T05:02:38.537Z,18.50
2018-06-11T05:05:06.304Z,18.70
2018-06-11T05:07:34.597Z,19.00
2018-06-11T05:10:02.324Z,19.10
2018-06-11T05:12:30.153Z,19.20
2018-06-11T05:14:59.082Z,19.40
2018-06-11T05:17:26.992Z,19.50
2018-06-11T05:19:57.005Z,19.60
2018-06-11T05:22:24.764Z,19.80
2018-06-11T05:24:52.541Z,20.00
2018-06-11T05:27:20.338Z,20.20
2018-06-11T05:29:49.454Z,20.30
2018-06-11T05:32:17.227Z,20.40
2018-06-11T05:34:44.911Z,20.60
2018-06-11T05:37:12.693Z,20.90
2018-06-11T05:39:40.418Z,21.00
2018-06-11T05:42:08.129Z,20.90
2018-06-11T05:44:35.807Z,21.00
2018-06-11T05:47:03.993Z,21.00
2018-06-11T05:49:31.731Z,21.10
2018-06-11T05:51:59.531Z,21.30
2018-06-11T05:54:27.208Z,21.40
2018-06-11T05:56:54.951Z,21.30
2018-06-11T05:59:22.813Z,21.20
2018-06-11T06:01:50.522Z,21.20
2018-06-11T06:04:18.217Z,21.40
2018-06-11T06:09:13.582Z,21.40
2018-06-11T06:11:41.325Z,21.50
2018-06-11T06:14:09.098Z,21.70
2018-06-11T06:16:36.800Z,22.20
2018-06-11T06:19:04.556Z,22.60
2018-06-11T06:21:32.335Z,23.10
2018-06-11T06:24:00.155Z,23.50
2018-06-11T06:26:28.030Z,23.70
2018-06-11T06:28:55.735Z,23.70
2018-06-11T06:31:23.674Z,23.70
2018-06-11T06:33:51.390Z,24.10
2018-06-11T06:36:19.145Z,24.50
2018-06-11T06:41:14.514Z,25.50
2018-06-11T06:43:42.390Z,26.30
2018-06-11T06:46:10.147Z,27.10
2018-06-11T06:48:38.052Z,27.70
2018-06-11T06:51:05.882Z,28.10
2018-06-11T06:53:33.634Z,28.20
2018-06-11T06:56:01.381Z,29.00
2018-06-11T06:58:29.224Z,29.60
2018-06-11T07:00:56.972Z,30.00
2018-06-11T07:03:24.684Z,30.80
2018-06-11T07:05:52.756Z,31.20
2018-06-11T07:08:20.482Z,31.70
2018-06-11T07:10:48.378Z,31.90
2018-06-11T07:13:16.337Z,31.60
2018-06-11T07:15:44.140Z,30.40
2018-06-11T07:18:11.886Z,30.50
2018-06-11T07:20:39.591Z,30.90
2018-06-11T07:23:07.373Z,31.50
2018-06-11T07:25:35.149Z,32.70
2018-06-11T07:28:03.129Z,33.90
2018-06-11T07:32:58.635Z,35.60
2018-06-11T07:35:26.378Z,34.30
2018-06-11T07:37:54.200Z,34.00
2018-06-11T07:40:22.070Z,33.20
2018-06-11T07:42:49.805Z,31.50
2018-06-11T07:45:17.681Z,31.00
2018-06-11T07:47:45.436Z,30.60
2018-06-11T07:50:13.310Z,30.20
2018-06-11T07:52:41.021Z,30.00
2018-06-11T07:55:08.852Z,29.80
2018-06-11T07:57:36.797Z,29.00
2018-06-11T08:00:04.622Z,29.00
2018-06-11T08:02:32.368Z,29.00
2018-06-11T08:05:04.281Z,29.00
2018-06-11T08:07:32.177Z,29.10
2018-06-11T08:09:59.833Z,29.00
2018-06-11T08:12:27.624Z,28.90
2018-06-11T08:14:55.341Z,28.60
2018-06-11T08:17:23.201Z,28.70
2018-06-11T08:19:55.578Z,28.80
2018-06-11T08:22:23.390Z,29.20
2018-06-11T08:24:51.356Z,29.70
2018-06-11T08:27:19.030Z,29.80
2018-06-11T08:29:46.832Z,29.70
2018-06-11T08:32:14.603Z,29.60
2018-06-11T08:34:42.292Z,30.00
2018-06-11T08:37:10.062Z,30.10
2018-06-11T08:39:37.921Z,30.50
2018-06-11T08:42:05.706Z,30.70
2018-06-11T08:44:35.262Z,31.00
2018-06-11T08:47:03.086Z,30.90
2018-06-11T08:49:30.830Z,31.10
2018-06-11T08:51:58.570Z,31.20
2018-06-11T08:54:26.314Z,31.00
2018-06-11T08:56:54.022Z,31.10
2018-06-11T08:59:21.734Z,30.70
2018-06-11T09:01:49.602Z,30.60
2018-06-11T09:04:17.313Z,30.80
2018-06-11T09:06:45.162Z,31.50
2018-06-11T09:09:12.929Z,31.70
2018-06-11T09:11:40.622Z,32.20
2018-06-11T09:16:43.446Z,31.90
2018-06-11T09:19:11.176Z,31.80
2018-06-11T09:21:38.866Z,31.50
2018-06-11T09:24:06.607Z,30.80
2018-06-11T09:26:36.955Z,30.60
2018-06-11T09:29:04.682Z,30.40
2018-06-11T09:31:32.407Z,30.40
2018-06-11T09:34:00.102Z,30.30
2018-06-11T09:36:27.872Z,30.60
2018-06-11T09:38:55.631Z,30.80
2018-06-11T09:41:23.371Z,30.90
2018-06-11T09:43:51.134Z,30.60
2018-06-11T09:46:18.812Z,30.60
2018-06-11T09:48:46.602Z,30.70
2018-06-11T09:51:14.309Z,30.90
2018-06-11T09:53:42.115Z,31.30
2018-06-11T09:56:09.826Z,31.40
2018-06-11T09:58:37.709Z,32.40
2018-06-11T10:01:05.602Z,33.10
2018-06-11T10:03:33.338Z,33.60
2018-06-11T10:06:02.067Z,33.50
2018-06-11T10:08:29.945Z,33.10
2018-06-11T10:10:57.658Z,32.80
2018-06-11T10:13:25.470Z,32.30
2018-06-11T10:15:53.242Z,31.90
2018-06-11T10:18:20.986Z,31.50
2018-06-11T10:20:48.781Z,31.40
2018-06-11T10:23:16.475Z,31.10
2018-06-11T10:25:44.205Z,31.10
2018-06-11T10:28:12.007Z,31.20
2018-06-11T10:30:39.784Z,31.60
2018-06-11T10:33:07.575Z,33.10
2018-06-11T10:35:35.374Z,34.00
2018-06-11T10:38:03.236Z,34.80
2018-06-11T10:40:30.951Z,34.40
2018-06-11T10:42:58.722Z,34.40
2018-06-11T10:45:26.487Z,34.70
2018-06-11T10:47:54.256Z,35.20
2018-06-11T10:50:22.030Z,35.70
2018-06-11T10:52:49.774Z,35.40
2018-06-11T10:55:17.503Z,35.50
2018-06-11T11:00:12.831Z,35.40
2018-06-11T11:02:40.534Z,35.80
2018-06-11T11:05:08.283Z,35.80
2018-06-11T11:07:35.990Z,36.10
2018-06-11T11:10:03.950Z,36.10
2018-06-11T11:12:31.840Z,35.50
2018-06-11T11:14:59.586Z,35.30
2018-06-11T11:17:27.434Z,34.70
2018-06-11T11:19:55.159Z,34.40
2018-06-11T11:22:22.882Z,35.40
2018-06-11T11:24:50.585Z,35.10
2018-06-11T11:27:18.333Z,35.50
2018-06-11T11:29:46.166Z,35.20
2018-06-11T11:32:22.162Z,34.20
2018-06-11T11:34:49.995Z,33.80
2018-06-11T11:37:17.854Z,33.40
2018-06-11T11:39:45.607Z,33.80
2018-06-11T11:42:13.260Z,33.40
2018-06-11T11:44:41.122Z,32.80
2018-06-11T11:47:08.836Z,32.80
2018-06-11T11:49:36.697Z,32.60
2018-06-11T11:52:04.698Z,33.40
2018-06-11T11:54:32.572Z,33.50
2018-06-11T11:57:00.269Z,33.50
2018-06-11T11:59:28.741Z,33.30
2018-06-11T12:01:56.465Z,32.60
2018-06-11T12:04:26.224Z,31.70
2018-06-11T12:06:53.971Z,31.00
2018-06-11T12:09:23.482Z,30.50
2018-06-11T12:11:51.403Z,31.00
2018-06-11T12:14:19.110Z,31.40
2018-06-11T12:16:46.857Z,31.50
2018-06-11T12:19:14.685Z,31.70
2018-06-11T12:21:42.410Z,31.80
2018-06-11T12:24:11.190Z,31.70
2018-06-11T12:26:38.985Z,31.40
2018-06-11T12:29:06.849Z,31.70
2018-06-11T12:31:34.682Z,32.50
2018-06-11T12:34:02.512Z,33.40
2018-06-11T12:36:30.434Z,34.40
2018-06-11T12:38:58.207Z,35.20
2018-06-11T12:41:25.980Z,35.50
2018-06-11T12:43:56.354Z,35.80
2018-06-11T12:46:25.618Z,35.60
2018-06-11T12:48:53.342Z,35.00
2018-06-11T12:51:21.144Z,34.20
2018-06-11T12:53:48.930Z,33.80
2018-06-11T12:56:17.004Z,33.30
2018-06-11T12:58:44.744Z,32.60
2018-06-11T13:01:13.445Z,32.40
2018-06-11T13:03:43.946Z,32.60
2018-06-11T13:06:11.718Z,32.70
2018-06-11T13:08:40.070Z,33.50
2018-06-11T13:11:07.908Z,34.90
2018-06-11T13:13:35.690Z,36.00
2018-06-11T13:16:03.475Z,37.60
2018-06-11T13:18:31.444Z,38.60
2018-06-11T13:20:59.177Z,39.60
2018-06-11T13:23:26.943Z,39.80
2018-06-11T13:25:54.661Z,39.20
2018-06-11T13:28:23.158Z,37.30
2018-06-11T13:30:52.083Z,35.50
2018-06-11T13:33:19.906Z,34.40
2018-06-11T13:35:48.025Z,33.90
2018-06-11T13:38:15.874Z,33.30
2018-06-11T13:40:43.578Z,33.50
2018-06-11T13:43:11.301Z,34.40
2018-06-11T13:45:39.061Z,35.10
2018-06-11T13:48:06.746Z,35.10
2018-06-11T13:50:52.883Z,34.80
2018-06-11T13:53:20.671Z,34.90
2018-06-11T13:55:48.460Z,34.80
2018-06-11T13:58:16.223Z,35.00
2018-06-11T14:00:43.982Z,35.10
2018-06-11T14:03:11.766Z,34.10
2018-06-11T14:05:39.549Z,33.10
2018-06-11T14:08:07.401Z,32.70
2018-06-11T14:10:35.101Z,32.60
2018-06-11T14:13:02.898Z,32.40
2018-06-11T14:15:30.691Z,32.60
2018-06-11T14:17:58.561Z,32.70
2018-06-11T14:20:26.332Z,33.10
2018-06-11T14:22:54.074Z,33.10
2018-06-11T14:25:21.830Z,32.70
2018-06-11T14:27:50.178Z,32.60
2018-06-11T14:30:17.917Z,32.10
2018-06-11T14:32:45.705Z,31.80
2018-06-11T14:35:13.641Z,31.50
2018-06-11T14:37:46.456Z,31.40
2018-06-11T14:46:01.567Z,30.50
2018-06-11T14:48:29.586Z,30.40
2018-06-11T14:50:57.289Z,29.90
2018-06-11T14:53:25.011Z,28.20
2018-06-11T14:55:58.320Z,27.50
2018-06-11T14:58:26.061Z,27.10
2018-06-11T15:00:53.854Z,26.60
2018-06-11T15:03:21.598Z,26.30
2018-06-11T15:05:49.423Z,26.10
2018-06-11T15:11:10.493Z,25.90
2018-06-11T15:13:38.360Z,25.60
2018-06-11T15:16:06.324Z,25.30
2018-06-11T15:18:34.083Z,24.90
2018-06-11T15:21:01.806Z,24.60
2018-06-11T15:26:22.409Z,24.20
2018-06-11T15:28:50.104Z,23.90
2018-06-11T15:31:17.904Z,23.70
2018-06-11T15:33:45.673Z,23.70
2018-06-11T15:36:13.477Z,23.60
2018-06-11T15:38:41.865Z,23.60
2018-06-11T15:41:09.606Z,23.50
2018-06-11T15:46:05.346Z,22.90
2018-06-11T15:48:33.119Z,22.70
2018-06-11T15:51:01.699Z,22.70
2018-06-11T15:53:29.457Z,22.90
2018-06-11T15:55:57.330Z,22.80
2018-06-11T15:58:25.504Z,22.70
2018-06-11T16:00:53.218Z,22.80
2018-06-11T16:03:20.954Z,22.90
2018-06-11T16:05:48.782Z,22.80
2018-06-11T16:08:16.486Z,22.60
2018-06-11T16:10:44.293Z,22.50
2018-06-11T16:13:12.179Z,22.30
2018-06-11T16:15:40.220Z,22.00
2018-06-11T16:18:08.106Z,21.70
2018-06-11T16:20:35.929Z,20.90
2018-06-11T16:25:31.405Z,19.90
2018-06-11T16:27:59.907Z,19.60
2018-06-11T16:30:29.478Z,19.20
2018-06-11T16:33:00.644Z,18.50
2018-06-11T16:35:28.763Z,18.00
2018-06-11T16:37:56.710Z,18.00
2018-06-11T16:40:24.630Z,17.90
2018-06-11T16:42:52.617Z,17.90
2018-06-11T16:45:20.427Z,17.70
2018-06-11T16:47:48.399Z,17.60
2018-06-11T16:52:45.846Z,17.70
2018-06-11T16:55:14.584Z,17.70
2018-06-11T16:57:43.387Z,17.60
2018-06-11T17:00:11.310Z,17.50
2018-06-11T17:02:39.056Z,17.60
2018-06-11T17:05:07.055Z,17.70
2018-06-11T17:07:35.143Z,17.70
2018-06-11T17:12:55.783Z,17.80
2018-06-11T17:18:16.141Z,18.00
2018-06-11T17:20:44.027Z,18.10
2018-06-11T17:23:11.787Z,18.10
2018-06-11T17:25:39.751Z,17.90
2018-06-11T17:28:07.739Z,17.80
2018-06-11T17:30:35.564Z,17.70
2018-06-11T17:33:07.392Z,17.70
2018-06-11T17:35:36.220Z,17.60
2018-06-11T17:38:04.616Z,17.60
2018-06-11T17:40:40.301Z,17.40
2018-06-11T17:43:08.170Z,17.50
2018-06-11T17:45:36.071Z,17.40
2018-06-11T17:53:24.605Z,17.70
2018-06-11T17:55:52.486Z,17.70
2018-06-11T17:58:20.234Z,17.70
2018-06-11T18:00:48.048Z,17.60
2018-06-11T18:03:15.885Z,17.60
2018-06-11T18:05:43.671Z,17.60
2018-06-11T18:08:11.485Z,17.50
2018-06-11T18:10:39.212Z,17.50
2018-06-11T18:13:06.970Z,17.40
2018-06-11T18:15:41.602Z,17.40
2018-06-11T18:18:09.335Z,17.40
2018-06-11T18:20:37.155Z,17.40
2018-06-11T18:23:04.900Z,17.30
2018-06-11T18:25:32.888Z,17.30
2018-06-11T18:28:00.840Z,17.30
2018-06-11T18:30:29.340Z,17.30
2018-06-11T18:32:57.272Z,17.30
2018-06-11T18:35:25.255Z,17.20
2018-06-11T18:37:53.020Z,17.30
2018-06-11T18:40:20.838Z,17.30
2018-06-11T18:42:48.642Z,17.20
2018-06-11T18:45:16.466Z,17.20
2018-06-11T18:47:44.457Z,17.10
2018-06-11T18:50:12.421Z,17.10
2018-06-11T18:52:40.189Z,17.10
2018-06-11T18:55:08.102Z,17.20
2018-06-11T18:57:35.861Z,17.20
2018-06-11T19:00:04.176Z,17.20
2018-06-11T19:02:31.959Z,17.20
2018-06-11T19:05:00.009Z,17.20
2018-06-11T19:09:55.484Z,17.20
2018-06-11T19:12:23.339Z,17.20
2018-06-11T19:14:51.192Z,17.20
2018-06-11T19:17:19.016Z,17.30
2018-06-11T19:22:40.187Z,17.10
2018-06-11T19:25:08.006Z,17.00
2018-06-11T19:27:35.810Z,17.00
2018-06-11T19:32:31.299Z,17.00
2018-06-11T19:34:59.256Z,17.00
2018-06-11T19:40:17.420Z,16.90
2018-06-11T19:42:45.280Z,16.80
2018-06-11T19:48:06.250Z,16.70
2018-06-11T19:50:34.071Z,16.60
2018-06-11T19:53:01.993Z,16.60
2018-06-11T19:55:29.834Z,16.70
2018-06-11T19:57:57.651Z,16.60
2018-06-11T20:00:25.542Z,16.70
2018-06-11T20:02:53.365Z,16.60
2018-06-11T20:05:21.203Z,16.70
2018-06-11T20:07:48.981Z,16.70
2018-06-11T20:10:16.762Z,16.70
2018-06-11T20:12:44.606Z,16.70
2018-06-11T20:15:12.459Z,16.70
2018-06-11T20:17:40.407Z,16.60
2018-06-11T20:20:08.311Z,16.60
2018-06-11T20:22:36.203Z,16.60
2018-06-11T20:25:04.053Z,16.60
2018-06-11T20:27:32.732Z,16.70
2018-06-11T20:30:00.622Z,16.60
2018-06-11T20:32:28.479Z,16.60
2018-06-11T20:34:57.818Z,16.60
2018-06-11T20:37:25.764Z,16.60
2018-06-11T20:39:53.549Z,16.70
2018-06-11T20:42:21.431Z,16.80
2018-06-11T20:44:49.232Z,16.80
2018-06-11T20:47:17.173Z,16.80
2018-06-11T20:52:13.878Z,16.80
2018-06-11T20:54:41.718Z,16.70
2018-06-11T20:57:09.506Z,16.80
2018-06-11T20:59:37.304Z,16.70
2018-06-11T21:02:05.178Z,16.80
2018-06-11T21:04:33.098Z,16.70
2018-06-11T21:07:00.822Z,16.60
2018-06-11T21:09:28.711Z,16.60
2018-06-11T21:14:50.323Z,16.60
2018-06-11T21:17:18.249Z,16.70
2018-06-11T21:19:45.978Z,16.70
2018-06-11T21:22:13.818Z,16.70
2018-06-11T21:24:44.871Z,16.80
2018-06-11T21:27:14.149Z,16.80
2018-06-11T21:29:42.005Z,16.80
2018-06-11T21:32:09.789Z,16.90
2018-06-11T21:34:37.633Z,16.90
2018-06-11T21:37:05.567Z,16.90
2018-06-11T21:39:33.836Z,16.90
2018-06-11T21:42:02.261Z,16.90
2018-06-11T21:44:30.095Z,16.90
2018-06-11T21:46:57.845Z,16.90
2018-06-11T21:49:25.673Z,16.90
2018-06-11T21:51:53.505Z,17.00
2018-06-11T21:54:21.370Z,17.00
2018-06-11T21:56:49.178Z,16.90
2018-06-11T21:59:17.229Z,17.00
2018-06-11T22:01:51.443Z,17.00
2018-06-11T22:04:19.277Z,17.00
2018-06-11T22:06:47.102Z,17.10
2018-06-11T22:09:15.221Z,17.20
2018-06-11T22:11:44.187Z,17.20
2018-06-11T22:14:12.118Z,17.20
2018-06-11T22:16:40.018Z,17.20
2018-06-11T22:21:35.486Z,17.20
2018-06-11T22:24:03.337Z,17.20
2018-06-11T22:26:31.155Z,17.20
2018-06-11T22:28:58.917Z,17.20
2018-06-11T22:31:33.355Z,17.20
2018-06-11T22:34:01.705Z,17.10
2018-06-11T22:36:29.626Z,17.20
2018-06-11T22:38:57.375Z,17.20
2018-06-11T22:41:25.223Z,17.20
2018-06-11T22:43:52.907Z,17.20
2018-06-11T22:46:20.866Z,17.20
2018-06-11T22:51:16.161Z,17.20
2018-06-11T22:53:43.891Z,17.20
2018-06-11T22:56:11.641Z,17.30
2018-06-11T22:58:39.425Z,17.30
2018-06-11T23:01:07.195Z,17.30
2018-06-11T23:03:35.775Z,17.30
2018-06-11T23:06:03.534Z,17.30
2018-06-11T23:08:31.300Z,17.30
2018-06-11T23:10:59.093Z,17.30
2018-06-11T23:13:26.863Z,17.30
2018-06-11T23:15:54.591Z,17.30
2018-06-11T23:20:49.906Z,17.30
2018-06-11T23:23:17.665Z,17.30
2018-06-11T23:25:45.721Z,17.40
2018-06-11T23:28:13.610Z,17.40
2018-06-11T23:30:41.314Z,17.30
2018-06-11T23:33:09.177Z,17.30
2018-06-11T23:35:36.914Z,17.30
2018-06-11T23:38:04.706Z,17.30
2018-06-11T23:40:35.646Z,17.30
2018-06-11T23:43:03.409Z,17.40
2018-06-11T23:45:31.133Z,17.30
2018-06-11T23:47:58.873Z,17.30
2018-06-11T23:50:26.680Z,17.30
2018-06-11T23:52:54.693Z,17.30
2018-06-11T23:55:22.542Z,17.30
